sensor_id;sensor_type;location;lat;lon;timestamp;temperature;humidity
67777;DHT22;54576;52.020;5.536;2023-05-02T00:01:36;11.60;88.10
67777;DHT22;54576;52.020;5.536;2023-05-02T00:04:03;11.50;87.80
67777;DHT22;54576;52.020;5.536;2023-05-02T00:06:29;11.50;89.50
67777;DHT22;54576;52.020;5.536;2023-05-02T00:08:56;11.40;90.20
67777;DHT22;54576;52.020;5.536;2023-05-02T00:11:21;11.40;88.80
67777;DHT22;54576;52.020;5.536;2023-05-02T00:13:48;11.40;88.50
67777;DHT22;54576;52.020;5.536;2023-05-02T00:16:14;11.40;90.40
67777;DHT22;54576;52.020;5.536;2023-05-02T00:18:40;11.40;90.20
67777;DHT22;54576;52.020;5.536;2023-05-02T00:21:05;11.40;90.80
67777;DHT22;54576;52.020;5.536;2023-05-02T00:23:32;11.40;91.00
67777;DHT22;54576;52.020;5.536;2023-05-02T00:25:57;11.40;91.50
67777;DHT22;54576;52.020;5.536;2023-05-02T00:28:23;11.40;90.70
67777;DHT22;54576;52.020;5.536;2023-05-02T00:30:48;11.40;94.00
67777;DHT22;54576;52.020;5.536;2023-05-02T00:33:14;11.40;90.80
67777;DHT22;54576;52.020;5.536;2023-05-02T00:35:40;11.40;91.00
67777;DHT22;54576;52.020;5.536;2023-05-02T00:38:06;11.40;89.60
67777;DHT22;54576;52.020;5.536;2023-05-02T00:40:42;11.40;90.70
67777;DHT22;54576;52.020;5.536;2023-05-02T00:43:09;11.50;95.90
67777;DHT22;54576;52.020;5.536;2023-05-02T00:45:34;11.50;91.90
67777;DHT22;54576;52.020;5.536;2023-05-02T00:48:00;11.40;91.50
67777;DHT22;54576;52.020;5.536;2023-05-02T00:50:26;11.50;90.60
67777;DHT22;54576;52.020;5.536;2023-05-02T00:52:54;11.50;90.70
67777;DHT22;54576;52.020;5.536;2023-05-02T00:55:19;11.50;93.30
67777;DHT22;54576;52.020;5.536;2023-05-02T00:57:45;11.50;93.00
67777;DHT22;54576;52.020;5.536;2023-05-02T01:00:11;11.50;91.30
67777;DHT22;54576;52.020;5.536;2023-05-02T01:02:47;11.50;90.00
67777;DHT22;54576;52.020;5.536;2023-05-02T01:05:27;11.60;91.80
67777;DHT22;54576;52.020;5.536;2023-05-02T01:08:11;11.60;91.20
67777;DHT22;54576;52.020;5.536;2023-05-02T01:10:54;11.60;91.20
67777;DHT22;54576;52.020;5.536;2023-05-02T01:13:25;11.60;92.20
67777;DHT22;54576;52.020;5.536;2023-05-02T01:15:53;11.50;91.90
67777;DHT22;54576;52.020;5.536;2023-05-02T01:18:24;11.60;91.30
67777;DHT22;54576;52.020;5.536;2023-05-02T01:21:02;11.50;92.30
67777;DHT22;54576;52.020;5.536;2023-05-02T01:23:59;11.60;92.40
67777;DHT22;54576;52.020;5.536;2023-05-02T01:29:38;11.50;99.90
67777;DHT22;54576;52.020;5.536;2023-05-02T01:32:05;11.50;93.50
67777;DHT22;54576;52.020;5.536;2023-05-02T01:34:32;11.50;96.50
67777;DHT22;54576;52.020;5.536;2023-05-02T01:37:00;11.50;95.90
67777;DHT22;54576;52.020;5.536;2023-05-02T01:39:28;11.50;96.50
67777;DHT22;54576;52.020;5.536;2023-05-02T01:41:55;11.40;95.40
67777;DHT22;54576;52.020;5.536;2023-05-02T01:44:23;11.40;99.50
67777;DHT22;54576;52.020;5.536;2023-05-02T01:46:50;11.40;96.70
67777;DHT22;54576;52.020;5.536;2023-05-02T01:49:17;11.40;99.90
67777;DHT22;54576;52.020;5.536;2023-05-02T01:51:46;11.30;99.90
67777;DHT22;54576;52.020;5.536;2023-05-02T01:54:13;11.20;99.90
67777;DHT22;54576;52.020;5.536;2023-05-02T01:56:40;11.20;99.90
67777;DHT22;54576;52.020;5.536;2023-05-02T01:59:09;11.20;99.90
67777;DHT22;54576;52.020;5.536;2023-05-02T02:01:37;11.20;96.40
67777;DHT22;54576;52.020;5.536;2023-05-02T02:04:05;11.20;99.90
67777;DHT22;54576;52.020;5.536;2023-05-02T02:06:31;11.10;98.40
67777;DHT22;54576;52.020;5.536;2023-05-02T02:08:58;11.10;96.20
67777;DHT22;54576;52.020;5.536;2023-05-02T02:11:26;11.10;94.70
67777;DHT22;54576;52.020;5.536;2023-05-02T02:14:08;11.10;95.20
67777;DHT22;54576;52.020;5.536;2023-05-02T02:16:37;11.10;99.90
67777;DHT22;54576;52.020;5.536;2023-05-02T02:19:07;11.00;97.70
67777;DHT22;54576;52.020;5.536;2023-05-02T02:21:35;11.00;99.90
67777;DHT22;54576;52.020;5.536;2023-05-02T02:24:01;11.00;99.90
67777;DHT22;54576;52.020;5.536;2023-05-02T02:26:28;11.00;99.90
67777;DHT22;54576;52.020;5.536;2023-05-02T02:28:54;10.90;97.30
67777;DHT22;54576;52.020;5.536;2023-05-02T02:31:20;10.90;97.90
67777;DHT22;54576;52.020;5.536;2023-05-02T02:33:46;10.90;96.60
67777;DHT22;54576;52.020;5.536;2023-05-02T02:36:16;10.90;94.10
67777;DHT22;54576;52.020;5.536;2023-05-02T02:38:54;10.90;99.90
67777;DHT22;54576;52.020;5.536;2023-05-02T02:41:38;10.80;99.90
67777;DHT22;54576;52.020;5.536;2023-05-02T02:46:59;10.90;94.60
67777;DHT22;54576;52.020;5.536;2023-05-02T02:49:43;10.90;96.60
67777;DHT22;54576;52.020;5.536;2023-05-02T02:52:34;10.90;99.90
67777;DHT22;54576;52.020;5.536;2023-05-02T02:55:19;10.90;99.90
67777;DHT22;54576;52.020;5.536;2023-05-02T02:58:04;10.80;98.00
67777;DHT22;54576;52.020;5.536;2023-05-02T03:00:32;10.80;99.90
67777;DHT22;54576;52.020;5.536;2023-05-02T03:02:59;10.70;96.10
67777;DHT22;54576;52.020;5.536;2023-05-02T03:05:25;10.70;93.80
67777;DHT22;54576;52.020;5.536;2023-05-02T03:07:50;10.70;94.80
67777;DHT22;54576;52.020;5.536;2023-05-02T03:10:16;10.70;94.40
67777;DHT22;54576;52.020;5.536;2023-05-02T03:12:42;10.60;94.40
67777;DHT22;54576;52.020;5.536;2023-05-02T03:17:39;10.50;95.30
67777;DHT22;54576;52.020;5.536;2023-05-02T03:20:05;10.50;92.40
67777;DHT22;54576;52.020;5.536;2023-05-02T03:22:31;10.50;92.80
67777;DHT22;54576;52.020;5.536;2023-05-02T03:24:56;10.50;92.30
67777;DHT22;54576;52.020;5.536;2023-05-02T03:27:22;10.50;91.90
67777;DHT22;54576;52.020;5.536;2023-05-02T03:29:47;10.50;91.50
67777;DHT22;54576;52.020;5.536;2023-05-02T03:32:13;10.50;91.30
67777;DHT22;54576;52.020;5.536;2023-05-02T03:34:38;10.50;91.40
67777;DHT22;54576;52.020;5.536;2023-05-02T03:37:08;10.50;91.50
67777;DHT22;54576;52.020;5.536;2023-05-02T03:39:33;10.50;91.50
67777;DHT22;54576;52.020;5.536;2023-05-02T03:41:59;10.50;91.30
67777;DHT22;54576;52.020;5.536;2023-05-02T03:44:26;10.40;93.50
67777;DHT22;54576;52.020;5.536;2023-05-02T03:46:51;10.40;92.00
67777;DHT22;54576;52.020;5.536;2023-05-02T03:49:17;10.40;92.10
67777;DHT22;54576;52.020;5.536;2023-05-02T03:51:44;10.40;91.30
67777;DHT22;54576;52.020;5.536;2023-05-02T03:54:09;10.50;91.10
67777;DHT22;54576;52.020;5.536;2023-05-02T03:56:35;10.50;91.90
67777;DHT22;54576;52.020;5.536;2023-05-02T03:59:01;10.50;91.50
67777;DHT22;54576;52.020;5.536;2023-05-02T04:01:28;10.40;92.20
67777;DHT22;54576;52.020;5.536;2023-05-02T04:03:53;10.40;91.40
67777;DHT22;54576;52.020;5.536;2023-05-02T04:06:19;10.40;91.50
67777;DHT22;54576;52.020;5.536;2023-05-02T04:08:44;10.40;90.90
67777;DHT22;54576;52.020;5.536;2023-05-02T04:11:10;10.40;91.70
67777;DHT22;54576;52.020;5.536;2023-05-02T04:13:36;10.40;92.40
67777;DHT22;54576;52.020;5.536;2023-05-02T04:16:01;10.40;91.60
67777;DHT22;54576;52.020;5.536;2023-05-02T04:18:28;10.30;92.60
67777;DHT22;54576;52.020;5.536;2023-05-02T04:20:55;10.30;92.80
67777;DHT22;54576;52.020;5.536;2023-05-02T04:23:20;10.30;93.60
67777;DHT22;54576;52.020;5.536;2023-05-02T04:25:53;10.20;94.00
67777;DHT22;54576;52.020;5.536;2023-05-02T04:28:22;10.20;92.60
67777;DHT22;54576;52.020;5.536;2023-05-02T04:30:48;10.20;96.50
67777;DHT22;54576;52.020;5.536;2023-05-02T04:33:14;10.10;93.20
67777;DHT22;54576;52.020;5.536;2023-05-02T04:35:40;10.10;92.10
67777;DHT22;54576;52.020;5.536;2023-05-02T04:38:06;10.10;91.60
67777;DHT22;54576;52.020;5.536;2023-05-02T04:40:33;10.10;92.00
67777;DHT22;54576;52.020;5.536;2023-05-02T04:42:58;10.10;90.90
67777;DHT22;54576;52.020;5.536;2023-05-02T04:45:24;10.10;91.30
67777;DHT22;54576;52.020;5.536;2023-05-02T04:47:50;10.20;91.20
67777;DHT22;54576;52.020;5.536;2023-05-02T04:50:16;10.20;91.50
67777;DHT22;54576;52.020;5.536;2023-05-02T04:52:41;10.20;90.80
67777;DHT22;54576;52.020;5.536;2023-05-02T04:55:07;10.20;91.80
67777;DHT22;54576;52.020;5.536;2023-05-02T04:57:32;10.20;91.80
67777;DHT22;54576;52.020;5.536;2023-05-02T04:59:58;10.20;91.40
67777;DHT22;54576;52.020;5.536;2023-05-02T05:02:24;10.10;93.30
67777;DHT22;54576;52.020;5.536;2023-05-02T05:04:50;10.10;92.30
67777;DHT22;54576;52.020;5.536;2023-05-02T05:07:16;10.10;91.90
67777;DHT22;54576;52.020;5.536;2023-05-02T05:09:41;10.10;91.00
67777;DHT22;54576;52.020;5.536;2023-05-02T05:12:07;10.10;91.20
67777;DHT22;54576;52.020;5.536;2023-05-02T05:14:33;10.10;90.90
67777;DHT22;54576;52.020;5.536;2023-05-02T05:16:59;10.10;90.00
67777;DHT22;54576;52.020;5.536;2023-05-02T05:19:24;10.10;90.30
67777;DHT22;54576;52.020;5.536;2023-05-02T05:21:50;10.10;88.40
67777;DHT22;54576;52.020;5.536;2023-05-02T05:24:16;10.10;91.30
67777;DHT22;54576;52.020;5.536;2023-05-02T05:26:41;10.10;90.00
67777;DHT22;54576;52.020;5.536;2023-05-02T05:29:07;10.00;89.40
67777;DHT22;54576;52.020;5.536;2023-05-02T05:31:33;10.10;87.90
67777;DHT22;54576;52.020;5.536;2023-05-02T05:33:58;10.00;88.00
67777;DHT22;54576;52.020;5.536;2023-05-02T05:36:25;10.00;86.60
67777;DHT22;54576;52.020;5.536;2023-05-02T05:38:52;10.00;87.00
67777;DHT22;54576;52.020;5.536;2023-05-02T05:41:17;9.90;87.70
67777;DHT22;54576;52.020;5.536;2023-05-02T05:43:43;10.00;86.60
67777;DHT22;54576;52.020;5.536;2023-05-02T05:46:08;10.00;85.90
67777;DHT22;54576;52.020;5.536;2023-05-02T05:48:34;10.00;85.50
67777;DHT22;54576;52.020;5.536;2023-05-02T05:51:04;9.90;85.20
67777;DHT22;54576;52.020;5.536;2023-05-02T05:53:30;9.90;84.90
67777;DHT22;54576;52.020;5.536;2023-05-02T05:55:55;10.00;84.30
67777;DHT22;54576;52.020;5.536;2023-05-02T05:58:22;10.00;84.60
67777;DHT22;54576;52.020;5.536;2023-05-02T06:00:47;10.00;83.20
67777;DHT22;54576;52.020;5.536;2023-05-02T06:03:13;9.90;83.80
67777;DHT22;54576;52.020;5.536;2023-05-02T06:05:39;9.90;84.10
67777;DHT22;54576;52.020;5.536;2023-05-02T06:08:05;9.90;83.60
67777;DHT22;54576;52.020;5.536;2023-05-02T06:10:33;9.80;83.90
67777;DHT22;54576;52.020;5.536;2023-05-02T06:12:59;9.70;84.30
67777;DHT22;54576;52.020;5.536;2023-05-02T06:15:25;9.70;84.70
67777;DHT22;54576;52.020;5.536;2023-05-02T06:17:53;9.70;84.20
67777;DHT22;54576;52.020;5.536;2023-05-02T06:20:19;9.70;83.90
67777;DHT22;54576;52.020;5.536;2023-05-02T06:22:44;9.70;83.10
67777;DHT22;54576;52.020;5.536;2023-05-02T06:25:10;9.80;82.30
67777;DHT22;54576;52.020;5.536;2023-05-02T06:27:36;9.80;81.50
67777;DHT22;54576;52.020;5.536;2023-05-02T06:30:01;9.80;81.20
67777;DHT22;54576;52.020;5.536;2023-05-02T06:32:30;9.90;81.30
67777;DHT22;54576;52.020;5.536;2023-05-02T06:34:56;9.90;80.40
67777;DHT22;54576;52.020;5.536;2023-05-02T06:37:21;10.00;80.80
67777;DHT22;54576;52.020;5.536;2023-05-02T06:39:47;10.10;80.30
67777;DHT22;54576;52.020;5.536;2023-05-02T06:42:13;10.20;79.30
67777;DHT22;54576;52.020;5.536;2023-05-02T06:44:38;10.30;78.20
67777;DHT22;54576;52.020;5.536;2023-05-02T06:47:04;10.30;77.70
67777;DHT22;54576;52.020;5.536;2023-05-02T06:49:32;10.40;77.30
67777;DHT22;54576;52.020;5.536;2023-05-02T06:51:58;10.50;77.10
67777;DHT22;54576;52.020;5.536;2023-05-02T06:54:24;10.60;77.20
67777;DHT22;54576;52.020;5.536;2023-05-02T06:56:50;10.70;76.60
67777;DHT22;54576;52.020;5.536;2023-05-02T06:59:16;10.70;76.40
67777;DHT22;54576;52.020;5.536;2023-05-02T07:01:42;10.90;76.30
67777;DHT22;54576;52.020;5.536;2023-05-02T07:04:08;10.80;73.70
67777;DHT22;54576;52.020;5.536;2023-05-02T07:06:34;10.80;74.60
67777;DHT22;54576;52.020;5.536;2023-05-02T07:08:59;10.80;74.40
67777;DHT22;54576;52.020;5.536;2023-05-02T07:11:25;10.70;74.00
67777;DHT22;54576;52.020;5.536;2023-05-02T07:13:52;10.70;75.10
67777;DHT22;54576;52.020;5.536;2023-05-02T07:16:18;10.70;74.20
67777;DHT22;54576;52.020;5.536;2023-05-02T07:18:43;10.70;74.10
67777;DHT22;54576;52.020;5.536;2023-05-02T07:21:12;10.70;74.20
67777;DHT22;54576;52.020;5.536;2023-05-02T07:23:37;10.70;73.90
67777;DHT22;54576;52.020;5.536;2023-05-02T07:26:03;10.70;74.30
67777;DHT22;54576;52.020;5.536;2023-05-02T07:28:30;10.70;74.10
67777;DHT22;54576;52.020;5.536;2023-05-02T07:30:55;10.80;74.00
67777;DHT22;54576;52.020;5.536;2023-05-02T07:33:21;10.80;74.70
67777;DHT22;54576;52.020;5.536;2023-05-02T07:35:48;10.70;73.90
67777;DHT22;54576;52.020;5.536;2023-05-02T07:38:14;10.50;74.90
67777;DHT22;54576;52.020;5.536;2023-05-02T07:40:39;10.50;75.50
67777;DHT22;54576;52.020;5.536;2023-05-02T07:43:05;10.30;76.00
67777;DHT22;54576;52.020;5.536;2023-05-02T07:45:30;10.20;76.60
67777;DHT22;54576;52.020;5.536;2023-05-02T07:47:56;10.20;76.90
67777;DHT22;54576;52.020;5.536;2023-05-02T07:50:22;10.30;77.00
67777;DHT22;54576;52.020;5.536;2023-05-02T07:52:48;10.40;76.50
67777;DHT22;54576;52.020;5.536;2023-05-02T07:55:13;10.40;76.30
67777;DHT22;54576;52.020;5.536;2023-05-02T07:57:39;10.40;76.00
67777;DHT22;54576;52.020;5.536;2023-05-02T08:00:05;10.50;75.90
67777;DHT22;54576;52.020;5.536;2023-05-02T08:02:37;10.60;75.80
67777;DHT22;54576;52.020;5.536;2023-05-02T08:05:03;10.80;75.30
67777;DHT22;54576;52.020;5.536;2023-05-02T08:07:30;10.90;73.90
67777;DHT22;54576;52.020;5.536;2023-05-02T08:09:56;11.00;74.30
67777;DHT22;54576;52.020;5.536;2023-05-02T08:12:21;11.10;73.70
67777;DHT22;54576;52.020;5.536;2023-05-02T08:14:47;11.20;72.90
67777;DHT22;54576;52.020;5.536;2023-05-02T08:17:12;11.20;72.50
67777;DHT22;54576;52.020;5.536;2023-05-02T08:19:38;11.20;72.50
67777;DHT22;54576;52.020;5.536;2023-05-02T08:22:03;11.30;72.60
67777;DHT22;54576;52.020;5.536;2023-05-02T08:24:29;11.30;73.30
67777;DHT22;54576;52.020;5.536;2023-05-02T08:26:55;11.50;73.60
67777;DHT22;54576;52.020;5.536;2023-05-02T08:29:22;11.60;71.70
67777;DHT22;54576;52.020;5.536;2023-05-02T08:31:48;11.70;73.10
67777;DHT22;54576;52.020;5.536;2023-05-02T08:34:13;11.60;70.80
67777;DHT22;54576;52.020;5.536;2023-05-02T08:36:39;11.70;71.70
67777;DHT22;54576;52.020;5.536;2023-05-02T08:39:04;11.70;70.10
67777;DHT22;54576;52.020;5.536;2023-05-02T08:41:32;11.70;70.60
67777;DHT22;54576;52.020;5.536;2023-05-02T08:43:58;11.80;70.30
67777;DHT22;54576;52.020;5.536;2023-05-02T08:46:24;11.80;69.50
67777;DHT22;54576;52.020;5.536;2023-05-02T08:48:51;11.70;71.00
67777;DHT22;54576;52.020;5.536;2023-05-02T08:51:17;11.60;70.70
67777;DHT22;54576;52.020;5.536;2023-05-02T08:53:43;11.60;69.60
67777;DHT22;54576;52.020;5.536;2023-05-02T08:56:11;11.60;69.00
67777;DHT22;54576;52.020;5.536;2023-05-02T08:58:38;11.50;66.80
67777;DHT22;54576;52.020;5.536;2023-05-02T09:01:18;11.50;67.80
67777;DHT22;54576;52.020;5.536;2023-05-02T09:03:46;11.60;65.10
67777;DHT22;54576;52.020;5.536;2023-05-02T09:06:15;11.60;67.30
67777;DHT22;54576;52.020;5.536;2023-05-02T09:08:46;11.70;67.50
67777;DHT22;54576;52.020;5.536;2023-05-02T09:11:16;11.70;66.30
67777;DHT22;54576;52.020;5.536;2023-05-02T09:13:46;11.80;66.30
67777;DHT22;54576;52.020;5.536;2023-05-02T09:16:14;11.80;65.80
67777;DHT22;54576;52.020;5.536;2023-05-02T09:18:50;11.70;64.90
67777;DHT22;54576;52.020;5.536;2023-05-02T09:21:21;11.70;66.10
67777;DHT22;54576;52.020;5.536;2023-05-02T09:26:19;12.00;66.80
67777;DHT22;54576;52.020;5.536;2023-05-02T09:28:49;12.00;65.30
67777;DHT22;54576;52.020;5.536;2023-05-02T09:31:16;12.00;63.90
67777;DHT22;54576;52.020;5.536;2023-05-02T09:33:42;12.00;64.90
67777;DHT22;54576;52.020;5.536;2023-05-02T09:36:11;12.20;64.60
67777;DHT22;54576;52.020;5.536;2023-05-02T09:38:39;12.20;64.50
67777;DHT22;54576;52.020;5.536;2023-05-02T09:41:05;12.40;64.30
67777;DHT22;54576;52.020;5.536;2023-05-02T09:43:31;12.60;63.50
67777;DHT22;54576;52.020;5.536;2023-05-02T09:46:05;12.70;62.00
67777;DHT22;54576;52.020;5.536;2023-05-02T09:48:35;12.70;62.00
67777;DHT22;54576;52.020;5.536;2023-05-02T09:51:16;12.50;61.20
67777;DHT22;54576;52.020;5.536;2023-05-02T09:53:43;12.50;63.90
67777;DHT22;54576;52.020;5.536;2023-05-02T09:56:09;12.50;65.30
67777;DHT22;54576;52.020;5.536;2023-05-02T09:58:34;12.50;62.90
67777;DHT22;54576;52.020;5.536;2023-05-02T10:01:00;12.50;65.00
67777;DHT22;54576;52.020;5.536;2023-05-02T10:03:27;12.50;63.40
67777;DHT22;54576;52.020;5.536;2023-05-02T10:05:53;12.50;62.60
67777;DHT22;54576;52.020;5.536;2023-05-02T10:08:20;12.40;63.40
67777;DHT22;54576;52.020;5.536;2023-05-02T10:10:56;12.40;63.00
67777;DHT22;54576;52.020;5.536;2023-05-02T10:13:23;12.60;65.00
67777;DHT22;54576;52.020;5.536;2023-05-02T10:16:05;12.60;64.00
67777;DHT22;54576;52.020;5.536;2023-05-02T10:21:04;12.80;59.30
67777;DHT22;54576;52.020;5.536;2023-05-02T10:23:32;12.50;56.40
67777;DHT22;54576;52.020;5.536;2023-05-02T10:25:59;12.70;60.70
67777;DHT22;54576;52.020;5.536;2023-05-02T10:28:28;13.00;60.90
67777;DHT22;54576;52.020;5.536;2023-05-02T10:30:54;13.10;57.10
67777;DHT22;54576;52.020;5.536;2023-05-02T10:33:21;13.10;57.10
67777;DHT22;54576;52.020;5.536;2023-05-02T10:35:48;13.20;58.80
67777;DHT22;54576;52.020;5.536;2023-05-02T10:38:19;13.50;61.60
67777;DHT22;54576;52.020;5.536;2023-05-02T10:40:51;13.50;60.20
67777;DHT22;54576;52.020;5.536;2023-05-02T10:43:22;13.40;57.90
67777;DHT22;54576;52.020;5.536;2023-05-02T10:45:51;13.40;56.20
67777;DHT22;54576;52.020;5.536;2023-05-02T10:48:22;13.20;57.30
67777;DHT22;54576;52.020;5.536;2023-05-02T10:53:36;13.30;55.90
67777;DHT22;54576;52.020;5.536;2023-05-02T10:56:18;13.30;58.50
67777;DHT22;54576;52.020;5.536;2023-05-02T10:58:51;13.50;53.10
67777;DHT22;54576;52.020;5.536;2023-05-02T11:01:31;13.60;56.90
67777;DHT22;54576;52.020;5.536;2023-05-02T11:06:31;13.70;56.00
67777;DHT22;54576;52.020;5.536;2023-05-02T11:11:43;13.70;56.50
67777;DHT22;54576;52.020;5.536;2023-05-02T11:14:10;13.70;57.10
67777;DHT22;54576;52.020;5.536;2023-05-02T11:24:48;13.50;55.20
67777;DHT22;54576;52.020;5.536;2023-05-02T11:30:08;13.50;54.30
67777;DHT22;54576;52.020;5.536;2023-05-02T11:35:23;13.70;53.60
67777;DHT22;54576;52.020;5.536;2023-05-02T11:37:54;13.60;54.60
67777;DHT22;54576;52.020;5.536;2023-05-02T11:40:20;13.70;53.90
67777;DHT22;54576;52.020;5.536;2023-05-02T11:42:46;13.50;54.00
67777;DHT22;54576;52.020;5.536;2023-05-02T11:45:12;13.30;55.40
67777;DHT22;54576;52.020;5.536;2023-05-02T11:47:39;13.40;56.00
67777;DHT22;54576;52.020;5.536;2023-05-02T11:50:06;13.50;55.60
67777;DHT22;54576;52.020;5.536;2023-05-02T11:52:39;13.50;54.60
67777;DHT22;54576;52.020;5.536;2023-05-02T11:55:06;13.40;54.00
67777;DHT22;54576;52.020;5.536;2023-05-02T11:57:33;13.40;55.00
67777;DHT22;54576;52.020;5.536;2023-05-02T11:59:58;13.40;54.00
67777;DHT22;54576;52.020;5.536;2023-05-02T12:05:04;13.10;54.20
67777;DHT22;54576;52.020;5.536;2023-05-02T12:07:44;13.00;54.10
67777;DHT22;54576;52.020;5.536;2023-05-02T12:10:11;13.10;53.50
67777;DHT22;54576;52.020;5.536;2023-05-02T12:12:37;13.10;54.00
67777;DHT22;54576;52.020;5.536;2023-05-02T12:15:08;13.30;55.60
67777;DHT22;54576;52.020;5.536;2023-05-02T12:17:40;13.60;55.50
67777;DHT22;54576;52.020;5.536;2023-05-02T12:20:07;13.70;53.60
67777;DHT22;54576;52.020;5.536;2023-05-02T12:22:33;13.80;55.10
67777;DHT22;54576;52.020;5.536;2023-05-02T12:24:59;13.90;53.70
67777;DHT22;54576;52.020;5.536;2023-05-02T12:27:25;14.00;53.40
67777;DHT22;54576;52.020;5.536;2023-05-02T12:29:54;14.10;55.10
67777;DHT22;54576;52.020;5.536;2023-05-02T12:32:30;14.10;54.10
67777;DHT22;54576;52.020;5.536;2023-05-02T12:34:56;14.00;52.10
67777;DHT22;54576;52.020;5.536;2023-05-02T12:37:23;14.10;54.00
67777;DHT22;54576;52.020;5.536;2023-05-02T12:39:49;14.10;54.40
67777;DHT22;54576;52.020;5.536;2023-05-02T12:42:16;14.20;54.50
67777;DHT22;54576;52.020;5.536;2023-05-02T12:44:44;14.20;54.00
67777;DHT22;54576;52.020;5.536;2023-05-02T12:47:11;14.30;53.90
67777;DHT22;54576;52.020;5.536;2023-05-02T12:49:54;14.30;47.70
67777;DHT22;54576;52.020;5.536;2023-05-02T12:55:19;14.00;53.70
67777;DHT22;54576;52.020;5.536;2023-05-02T12:57:45;13.90;54.30
67777;DHT22;54576;52.020;5.536;2023-05-02T13:00:11;13.70;50.40
67777;DHT22;54576;52.020;5.536;2023-05-02T13:02:37;13.60;93.70
67777;DHT22;54576;52.020;5.536;2023-05-02T13:05:13;13.30;53.70
67777;DHT22;54576;52.020;5.536;2023-05-02T13:07:39;13.40;52.40
67777;DHT22;54576;52.020;5.536;2023-05-02T13:10:05;13.40;53.40
67777;DHT22;54576;52.020;5.536;2023-05-02T13:12:30;13.60;54.40
67777;DHT22;54576;52.020;5.536;2023-05-02T13:14:56;13.50;53.60
67777;DHT22;54576;52.020;5.536;2023-05-02T13:17:21;13.60;55.00
67777;DHT22;54576;52.020;5.536;2023-05-02T13:19:47;13.60;54.50
67777;DHT22;54576;52.020;5.536;2023-05-02T13:22:12;13.60;52.90
67777;DHT22;54576;52.020;5.536;2023-05-02T13:24:38;13.50;52.60
67777;DHT22;54576;52.020;5.536;2023-05-02T13:27:03;13.60;53.40
67777;DHT22;54576;52.020;5.536;2023-05-02T13:29:29;13.50;51.20
67777;DHT22;54576;52.020;5.536;2023-05-02T13:31:55;13.40;53.40
67777;DHT22;54576;52.020;5.536;2023-05-02T13:34:21;13.50;54.60
67777;DHT22;54576;52.020;5.536;2023-05-02T13:36:46;13.40;56.10
67777;DHT22;54576;52.020;5.536;2023-05-02T13:39:12;13.30;63.90
67777;DHT22;54576;52.020;5.536;2023-05-02T13:41:38;13.30;53.50
67777;DHT22;54576;52.020;5.536;2023-05-02T13:44:04;13.60;92.10
67777;DHT22;54576;52.020;5.536;2023-05-02T13:46:29;13.70;88.50
67777;DHT22;54576;52.020;5.536;2023-05-02T13:49:02;13.60;52.30
67777;DHT22;54576;52.020;5.536;2023-05-02T13:51:34;13.70;56.50
67777;DHT22;54576;52.020;5.536;2023-05-02T13:54:00;13.80;58.00
67777;DHT22;54576;52.020;5.536;2023-05-02T13:56:26;13.70;56.80
67777;DHT22;54576;52.020;5.536;2023-05-02T13:58:51;13.70;89.50
67777;DHT22;54576;52.020;5.536;2023-05-02T14:01:17;13.70;90.60
67777;DHT22;54576;52.020;5.536;2023-05-02T14:03:42;13.70;90.10
67777;DHT22;54576;52.020;5.536;2023-05-02T14:06:08;13.60;88.90
67777;DHT22;54576;52.020;5.536;2023-05-02T14:08:34;13.70;53.40
67777;DHT22;54576;52.020;5.536;2023-05-02T14:11:00;13.80;53.00
67777;DHT22;54576;52.020;5.536;2023-05-02T14:13:25;13.80;52.60
67777;DHT22;54576;52.020;5.536;2023-05-02T14:15:52;13.90;52.90
67777;DHT22;54576;52.020;5.536;2023-05-02T14:18:18;13.90;53.00
67777;DHT22;54576;52.020;5.536;2023-05-02T14:20:43;14.00;52.90
67777;DHT22;54576;52.020;5.536;2023-05-02T14:23:09;14.00;50.50
67777;DHT22;54576;52.020;5.536;2023-05-02T14:25:35;14.00;53.10
67777;DHT22;54576;52.020;5.536;2023-05-02T14:28:01;13.90;52.40
67777;DHT22;54576;52.020;5.536;2023-05-02T14:30:27;14.00;53.00
67777;DHT22;54576;52.020;5.536;2023-05-02T14:32:53;14.10;52.40
67777;DHT22;54576;52.020;5.536;2023-05-02T14:35:18;14.20;52.60
67777;DHT22;54576;52.020;5.536;2023-05-02T14:37:44;14.10;50.70
67777;DHT22;54576;52.020;5.536;2023-05-02T14:40:11;14.00;52.70
67777;DHT22;54576;52.020;5.536;2023-05-02T14:42:41;14.00;51.90
67777;DHT22;54576;52.020;5.536;2023-05-02T14:45:08;13.90;52.70
67777;DHT22;54576;52.020;5.536;2023-05-02T14:47:35;13.80;52.90
67777;DHT22;54576;52.020;5.536;2023-05-02T14:50:04;13.80;51.10
67777;DHT22;54576;52.020;5.536;2023-05-02T14:52:29;13.90;53.50
67777;DHT22;54576;52.020;5.536;2023-05-02T14:54:58;14.00;53.30
67777;DHT22;54576;52.020;5.536;2023-05-02T14:57:24;14.10;52.40
67777;DHT22;54576;52.020;5.536;2023-05-02T14:59:49;14.00;53.30
67777;DHT22;54576;52.020;5.536;2023-05-02T15:02:15;13.70;49.70
67777;DHT22;54576;52.020;5.536;2023-05-02T15:04:40;13.80;93.50
67777;DHT22;54576;52.020;5.536;2023-05-02T15:07:06;13.80;53.40
67777;DHT22;54576;52.020;5.536;2023-05-02T15:09:32;13.70;53.20
67777;DHT22;54576;52.020;5.536;2023-05-02T15:11:57;13.60;53.30
67777;DHT22;54576;52.020;5.536;2023-05-02T15:14:23;13.40;54.00
67777;DHT22;54576;52.020;5.536;2023-05-02T15:16:48;13.40;53.90
67777;DHT22;54576;52.020;5.536;2023-05-02T15:19:14;13.40;53.30
67777;DHT22;54576;52.020;5.536;2023-05-02T15:21:40;13.40;53.10
67777;DHT22;54576;52.020;5.536;2023-05-02T15:24:05;13.50;54.00
67777;DHT22;54576;52.020;5.536;2023-05-02T15:26:31;13.60;54.00
67777;DHT22;54576;52.020;5.536;2023-05-02T15:28:57;13.60;54.00
67777;DHT22;54576;52.020;5.536;2023-05-02T15:31:23;13.50;53.20
67777;DHT22;54576;52.020;5.536;2023-05-02T15:33:49;13.50;52.80
67777;DHT22;54576;52.020;5.536;2023-05-02T15:36:15;13.60;52.50
67777;DHT22;54576;52.020;5.536;2023-05-02T15:38:41;13.60;52.10
67777;DHT22;54576;52.020;5.536;2023-05-02T15:41:08;13.40;52.70
67777;DHT22;54576;52.020;5.536;2023-05-02T15:43:34;13.40;52.50
67777;DHT22;54576;52.020;5.536;2023-05-02T15:46:00;13.40;52.00
67777;DHT22;54576;52.020;5.536;2023-05-02T15:48:28;13.30;52.40
67777;DHT22;54576;52.020;5.536;2023-05-02T15:50:54;13.30;52.60
67777;DHT22;54576;52.020;5.536;2023-05-02T15:53:20;13.20;53.00
67777;DHT22;54576;52.020;5.536;2023-05-02T15:55:47;13.20;53.90
67777;DHT22;54576;52.020;5.536;2023-05-02T15:58:13;13.30;53.50
67777;DHT22;54576;52.020;5.536;2023-05-02T16:00:39;13.20;53.30
67777;DHT22;54576;52.020;5.536;2023-05-02T16:03:05;13.20;53.80
67777;DHT22;54576;52.020;5.536;2023-05-02T16:05:31;13.10;53.70
67777;DHT22;54576;52.020;5.536;2023-05-02T16:07:57;13.10;53.60
67777;DHT22;54576;52.020;5.536;2023-05-02T16:10:23;13.20;53.30
67777;DHT22;54576;52.020;5.536;2023-05-02T16:12:48;13.20;52.30
67777;DHT22;54576;52.020;5.536;2023-05-02T16:15:14;13.10;52.10